Fostoria, Iowa
Current Conditions -  °F | °C
As of 11:53 AM on Sunday 25 Jan 2015 (Local Time) from KSPW Reporting Station
Overcast Overcast  
Wind Chill: 23°   Ceiling: 800
Heat Index: 32°   Visibility: 10mi
Dew Point: 28°   Wind: 12mph
Humidity: 85%   Direction: 360°N
Pressure: 29.99"   Gusts: NA
Location:  43.24°N, 95.16°W
Report Text: KSPW 251753Z AUTO 36010KT 10SM OVC008 00/M02 A2999 RMK AO2 SLP168 60000 I6000 T00001022 10011 21006 51027 TSNO
Loading
Personal Weather Stations






























Interactive Weather Map New forecast layout! Learn more

10-Day Weather Forecast

Advertisements
Track Severe Weather on mobile